Time;durP1;ratioP1;P1;durP2;ratioP2;P2;SDS_P1;SDS_P2;PMS_P1;PMS_P2;Temp;Humidity;BMP_temperature;BMP_pressure;BME280_temperature;BME280_humidity;BME280_pressure;Samples;Min_cycle;Max_cycle;Signal;HPM_P1;HPM_P2
2024/01/10 00:00:05;;;;;;;3.80;2.50;;;;;;;-4.78;71.70;103134.47;5089730;28;20055;-35
2024/01/10 00:02:30;;;;;;;;;;;;;;;-4.81;70.53;103130.22;5090435;28;20020;-35
2024/01/10 00:04:56;;;;;;;3.83;2.15;;;;;;;-4.84;71.14;103121.59;5089972;28;19961;-35
2024/01/10 00:07:21;;;;;;;4.23;2.60;;;;;;;-4.90;71.66;103120.09;5081755;28;20087;-35
2024/01/10 00:09:46;;;;;;;3.83;2.33;;;;;;;-4.89;71.38;103113.03;5076099;28;20029;-35
2024/01/10 00:12:12;;;;;;;3.83;2.63;;;;;;;-4.96;71.23;103105.44;5076097;28;20039;-35
2024/01/10 00:14:37;;;;;;;5.30;2.73;;;;;;;-5.05;71.17;103090.03;5075913;28;20021;-35
2024/01/10 00:17:03;;;;;;;5.30;2.23;;;;;;;-4.96;71.79;103105.44;5074832;28;20474;-35
2024/01/10 00:19:28;;;;;;;4.47;2.40;;;;;;;-4.94;73.73;103108.84;5075642;28;20270;-35
2024/01/10 00:21:54;;;;;;;3.95;2.65;;;;;;;-4.92;73.82;103108.78;5075963;28;20025;-35
2024/01/10 00:24:19;;;;;;;3.80;2.33;;;;;;;-5.03;72.25;103095.25;5076104;28;20119;-35
2024/01/10 00:26:44;;;;;;;3.03;2.00;;;;;;;-5.14;71.87;103095.75;5075727;28;20032;-35
2024/01/10 00:29:10;;;;;;;4.57;2.03;;;;;;;-5.03;71.88;103097.88;5075703;28;20024;-35
2024/01/10 00:31:35;;;;;;;5.07;2.40;;;;;;;-5.05;72.72;103099.75;5076235;28;20031;-35
2024/01/10 00:34:00;;;;;;;3.50;2.10;;;;;;;-5.05;74.24;103084.78;5075223;28;20036;-35
2024/01/10 00:36:26;;;;;;;3.73;2.27;;;;;;;-5.10;74.22;103085.94;5075220;28;20033;-35
2024/01/10 00:38:51;;;;;;;4.88;2.25;;;;;;;-5.03;73.75;103097.88;5075597;28;20025;-35
2024/01/10 00:41:17;;;;;;;3.30;2.20;;;;;;;-5.15;74.05;103069.47;5075801;28;20032;-35
2024/01/10 00:43:42;;;;;;;3.65;2.17;;;;;;;-4.99;74.03;103096.81;5075964;28;20112;-35
2024/01/10 00:46:08;;;;;;;4.68;2.45;;;;;;;-5.01;74.82;103096.88;5075980;28;20376;-35
2024/01/10 00:48:34;;;;;;;4.07;2.23;;;;;;;-5.09;74.61;103087.63;5075372;28;20031;-35
2024/01/10 00:50:59;;;;;;;4.18;2.47;;;;;;;-5.13;75.58;103080.78;5075634;28;20048;-35
2024/01/10 00:53:26;;;;;;;4.15;2.58;;;;;;;-5.13;73.44;103092.19;5074976;28;20029;-35
2024/01/10 00:55:51;;;;;;;3.80;2.58;;;;;;;-5.17;73.75;103074.81;5075607;28;20071;-35
2024/01/10 00:58:16;;;;;;;4.03;2.95;;;;;;;-5.16;74.72;103084.44;5075126;28;20024;-34
2024/01/10 01:00:42;;;;;;;3.20;2.07;;;;;;;-5.26;74.15;103070.00;5075671;28;20044;-35
2024/01/10 01:03:07;;;;;;;21.60;4.10;;;;;;;-5.21;75.10;103089.09;5075337;28;20035;-34
2024/01/10 01:05:32;;;;;;;4.13;2.80;;;;;;;-5.38;73.90;103073.19;5075291;28;20131;-34
2024/01/10 01:07:58;;;;;;;4.00;2.40;;;;;;;-5.29;74.75;103091.22;5074995;28;20032;-34
2024/01/10 01:10:23;;;;;;;5.63;2.57;;;;;;;-5.29;75.79;103078.88;5074978;28;20028;-34
2024/01/10 01:12:49;;;;;;;4.05;2.30;;;;;;;-5.27;75.58;103079.69;5074665;28;20016;-34
2024/01/10 01:15:14;;;;;;;5.33;2.47;;;;;;;-5.33;75.80;103085.22;5074970;28;20024;-34
2024/01/10 01:17:39;;;;;;;4.83;2.70;;;;;;;-5.30;75.88;103086.88;5075133;28;20365;-34
2024/01/10 01:20:06;;;;;;;4.10;2.53;;;;;;;-5.32;77.17;103086.09;5073936;28;20029;-34
2024/01/10 01:22:31;;;;;;;4.03;2.70;;;;;;;-5.36;77.16;103074.00;5075231;28;20024;-34
2024/01/10 01:24:57;;;;;;;3.23;2.23;;;;;;;-5.34;76.09;103078.25;5074925;28;20388;-34
2024/01/10 01:27:23;;;;;;;4.65;3.10;;;;;;;-5.37;76.25;103074.91;5075215;28;20040;-34
2024/01/10 01:29:48;;;;;;;4.82;3.03;;;;;;;-5.27;78.67;103089.34;5075282;28;20029;-34
2024/01/10 01:32:14;;;;;;;4.10;2.50;;;;;;;-5.27;77.48;103084.06;5075123;28;20420;-34
2024/01/10 01:34:39;;;;;;;3.63;2.50;;;;;;;-5.34;76.63;103086.16;5073133;28;20029;-34
2024/01/10 01:37:05;;;;;;;4.83;2.90;;;;;;;-5.44;76.14;103080.47;5074749;28;20263;-34
2024/01/10 01:39:30;;;;;;;4.97;2.65;;;;;;;-5.44;76.30;103085.75;5075147;28;20028;-34
2024/01/10 01:41:55;;;;;;;4.20;3.00;;;;;;;-5.47;76.87;103083.25;5074573;28;20028;-34
2024/01/10 01:44:21;;;;;;;3.30;2.60;;;;;;;-5.45;77.34;103077.91;5074283;28;20381;-34
2024/01/10 01:46:47;;;;;;;4.93;2.30;;;;;;;-5.45;77.30;103077.91;5073890;28;20056;-34
2024/01/10 01:49:13;;;;;;;4.28;2.78;;;;;;;-5.46;77.48;103070.94;5073811;28;20675;-34
2024/01/10 01:51:39;;;;;;;5.10;3.00;;;;;;;-5.45;78.08;103073.50;5074136;28;20036;-34
2024/01/10 01:54:11;;;;;;;5.47;3.17;;;;;;;-5.39;79.83;103079.41;5073837;28;20260;-34
2024/01/10 01:56:37;;;;;;;5.28;3.28;;;;;;;-5.44;78.45;103072.56;5073840;28;20076;-34
2024/01/10 01:59:04;;;;;;;4.00;3.00;;;;;;;-5.49;77.55;103074.56;5074034;28;20500;-34
2024/01/10 02:01:29;;;;;;;5.53;3.17;;;;;;;-5.49;78.27;103074.56;5074477;28;20112;-34
2024/01/10 02:03:55;;;;;;;4.70;3.25;;;;;;;-5.54;77.88;103075.72;5074655;28;20465;-34
2024/01/10 02:06:20;;;;;;;5.07;2.97;;;;;;;-5.53;80.47;103064.22;5073860;28;20033;-34
2024/01/10 02:08:46;;;;;;;5.00;2.97;;;;;;;-5.47;80.05;103077.13;5073743;28;20298;-34
2024/01/10 02:11:11;;;;;;;6.47;3.38;;;;;;;-5.54;78.20;103071.28;5074086;28;20032;-34
2024/01/10 02:13:37;;;;;;;4.60;2.92;;;;;;;-5.59;79.08;103057.47;5073725;28;20373;-34
2024/01/10 02:16:03;;;;;;;5.82;2.95;;;;;;;-5.53;80.36;103072.16;5073394;28;20020;-34
2024/01/10 02:18:29;;;;;;;5.40;2.70;;;;;;;-5.52;80.53;103073.84;5073931;28;20095;-34
2024/01/10 02:20:54;;;;;;;4.20;2.77;;;;;;;-5.53;79.66;103072.16;5073970;28;20053;-34
2024/01/10 02:23:19;;;;;;;5.43;3.27;;;;;;;-5.54;79.29;103073.06;5073586;28;20479;-35
2024/01/10 02:25:45;;;;;;;7.47;2.67;;;;;;;-5.57;79.13;103060.88;5073992;28;20028;-35
2024/01/10 02:28:11;;;;;;;5.47;3.67;;;;;;;-5.57;80.16;103071.41;5073242;28;20070;-35
2024/01/10 02:30:36;;;;;;;4.93;2.67;;;;;;;-5.57;80.24;103070.56;5073796;28;20028;-35
2024/01/10 02:33:02;;;;;;;3.88;2.35;;;;;;;-5.61;80.37;103074.28;5074025;28;20357;-35
2024/01/10 02:35:27;;;;;;;3.35;2.00;;;;;;;-5.63;82.45;103066.44;5073836;28;20087;-35
2024/01/10 02:37:54;;;;;;;3.37;2.40;;;;;;;-5.68;81.34;103075.50;5073746;28;20029;-35
2024/01/10 02:40:19;;;;;;;;;;;;;;;-5.62;80.98;103065.50;5073329;28;20279;-35
2024/01/10 02:42:44;;;;;;;3.88;2.53;;;;;;;-5.73;83.79;103055.47;5073372;28;19912;-35
2024/01/10 02:45:10;;;;;;;7.20;2.93;;;;;;;-5.64;84.12;103063.88;5073879;28;20062;-35
2024/01/10 02:47:37;;;;;;;4.67;2.93;;;;;;;-5.61;83.16;103055.81;5074124;28;20028;-35
2024/01/10 02:50:03;;;;;;;4.13;2.55;;;;;;;-5.75;82.29;103059.97;5073761;28;20028;-35
2024/01/10 02:52:28;;;;;;;3.53;2.42;;;;;;;-5.76;82.90;103062.66;5073822;28;20031;-35
2024/01/10 02:54:54;;;;;;;4.27;2.63;;;;;;;-5.82;82.61;103049.78;5073082;28;20044;-35
2024/01/10 02:57:19;;;;;;;4.60;2.60;;;;;;;-5.86;82.96;103050.84;5073241;28;20036;-35
2024/01/10 02:59:44;;;;;;;4.47;2.77;;;;;;;-5.97;83.34;103041.69;5072946;28;20119;-35
2024/01/10 03:02:10;;;;;;;3.47;1.87;;;;;;;-5.90;83.62;103047.50;5073043;28;20031;-35
2024/01/10 03:04:35;;;;;;;4.63;2.53;;;;;;;-5.94;84.28;103032.78;5073135;28;20499;-35
2024/01/10 03:07:00;;;;;;;4.10;2.60;;;;;;;-5.99;85.80;103025.09;5073427;28;20056;-35
2024/01/10 03:09:26;;;;;;;4.77;2.73;;;;;;;-5.94;84.39;103039.84;5073887;28;20453;-35
2024/01/10 03:11:51;;;;;;;7.07;3.13;;;;;;;-6.06;84.10;103021.00;5073696;28;20036;-35
2024/01/10 03:14:16;;;;;;;5.13;2.73;;;;;;;-5.96;84.16;103024.94;5073582;28;20025;-34
2024/01/10 03:16:42;;;;;;;4.80;2.90;;;;;;;-5.98;85.71;103018.91;5073271;28;20278;-35
2024/01/10 03:19:07;;;;;;;3.60;2.50;;;;;;;-5.88;84.90;103036.88;5073048;28;20024;-35
2024/01/10 03:21:32;;;;;;;4.80;2.67;;;;;;;-6.01;84.45;103012.91;5073269;28;20036;-35
2024/01/10 03:23:59;;;;;;;4.40;2.80;;;;;;;-5.86;84.38;103027.13;5073202;28;20035;-35
2024/01/10 03:26:26;;;;;;;3.97;2.70;;;;;;;-5.98;84.55;103013.63;5072713;28;20488;-35
2024/01/10 03:28:51;;;;;;;;;;;;;;;-5.84;84.89;103025.28;5072983;28;20477;-35
2024/01/10 03:31:17;;;;;;;4.20;2.53;;;;;;;-5.84;85.56;103026.13;5071654;28;19923;-34
2024/01/10 03:33:42;;;;;;;3.63;2.65;;;;;;;-5.90;85.69;103010.63;5073094;28;20029;-35
2024/01/10 03:36:13;;;;;;;5.22;2.85;;;;;;;-5.83;84.92;103024.34;5073339;28;20518;-35
2024/01/10 03:38:39;;;;;;;3.92;2.63;;;;;;;-5.83;86.34;103021.72;5073112;28;20029;-35
2024/01/10 03:41:04;;;;;;;4.57;2.67;;;;;;;-5.89;85.52;103007.06;5072576;28;20382;-34
2024/01/10 03:43:30;;;;;;;4.93;3.00;;;;;;;-5.89;85.50;103009.69;5076370;28;20059;-35
2024/01/10 03:45:56;;;;;;;5.80;3.28;;;;;;;-5.94;85.81;103014.34;5076720;28;20032;-34
2024/01/10 03:48:22;;;;;;;3.83;2.55;;;;;;;-5.89;89.70;103014.09;5076409;28;20028;-35
2024/01/10 03:50:47;;;;;;;5.78;2.60;;;;;;;-5.88;88.32;103015.81;5075256;28;20020;-35
2024/01/10 03:53:12;;;;;;;3.60;2.47;;;;;;;-5.89;87.25;103012.31;5076871;28;20471;-35
2024/01/10 03:55:39;;;;;;;4.97;3.27;;;;;;;-5.87;89.08;103015.72;5076944;28;20044;-35
2024/01/10 03:58:04;;;;;;;3.88;2.65;;;;;;;-5.93;nan;103020.47;5076289;28;20033;-34
2024/01/10 04:00:29;;;;;;;4.65;2.90;;;;;;;-6.04;87.28;102990.22;5076250;28;20040;-34
2024/01/10 04:02:55;;;;;;;6.00;3.20;;;;;;;-6.08;87.90;102985.16;5076636;28;20028;-35
2024/01/10 04:05:20;;;;;;;5.63;2.87;;;;;;;-6.04;88.39;103003.38;5076198;28;20071;-35
2024/01/10 04:07:46;;;;;;;4.13;3.17;;;;;;;-6.06;88.38;102993.81;5075708;28;20017;-34
2024/01/10 04:10:13;;;;;;;4.63;3.13;;;;;;;-6.09;88.52;102996.63;5076306;28;20419;-35
2024/01/10 04:12:44;;;;;;;5.63;2.97;;;;;;;-6.12;88.55;102980.94;5075753;28;20473;-35
2024/01/10 04:15:10;;;;;;;5.30;2.90;;;;;;;-6.11;89.58;102975.59;5075761;28;20105;-35
2024/01/10 04:17:36;;;;;;;4.80;3.22;;;;;;;-6.17;88.93;102981.16;5076054;28;20411;-35
2024/01/10 04:20:02;;;;;;;4.77;2.73;;;;;;;-6.10;90.11;102987.88;5076270;28;20023;-35
2024/01/10 04:22:28;;;;;;;5.80;2.70;;;;;;;-6.18;89.29;102973.34;5075844;28;20394;-34
2024/01/10 04:24:53;;;;;;;4.72;2.83;;;;;;;-6.08;89.65;102986.00;5075918;28;20031;-34
2024/01/10 04:27:19;;;;;;;5.38;3.10;;;;;;;-6.14;90.30;102974.91;5076187;28;20032;-35
2024/01/10 04:29:44;;;;;;;4.80;2.80;;;;;;;-6.10;90.00;102979.97;5075699;28;20412;-35
2024/01/10 04:32:10;;;;;;;6.32;3.88;;;;;;;-6.09;89.65;102978.19;5075969;28;20259;-34
2024/01/10 04:34:35;;;;;;;5.63;3.20;;;;;;;-6.11;89.28;102974.75;5075330;28;20461;-34
2024/01/10 04:37:01;;;;;;;6.95;3.33;;;;;;;-6.23;89.95;102955.09;5076178;28;20020;-36
2024/01/10 04:39:26;;;;;;;4.90;3.08;;;;;;;-6.27;89.94;102964.91;5075300;28;20028;-35
2024/01/10 04:41:52;;;;;;;4.10;2.83;;;;;;;-6.21;90.21;102979.56;5075669;28;20103;-35
2024/01/10 04:44:17;;;;;;;4.90;2.92;;;;;;;-6.14;91.40;102977.53;5075993;28;20028;-34
2024/01/10 04:46:43;;;;;;;5.00;2.80;;;;;;;-6.20;91.05;102970.75;5074896;28;20354;-34
2024/01/10 04:49:08;;;;;;;5.60;2.80;;;;;;;-6.10;91.37;102984.34;5075895;28;20437;-34
2024/01/10 04:51:33;;;;;;;5.03;3.30;;;;;;;-6.10;90.59;102982.59;5075391;28;20063;-34
2024/01/10 04:53:59;;;;;;;4.05;2.53;;;;;;;-6.06;90.18;102984.13;5075444;28;20095;-35
2024/01/10 04:56:25;;;;;;;5.85;3.47;;;;;;;-6.04;90.27;102986.72;5075756;28;20500;-35
2024/01/10 04:58:51;;;;;;;4.93;2.75;;;;;;;-6.04;90.40;102989.34;5074935;28;20059;-34
2024/01/10 05:01:16;;;;;;;4.17;2.77;;;;;;;-6.00;90.61;102991.78;5074246;28;20119;-35
2024/01/10 05:03:41;;;;;;;4.43;2.95;;;;;;;-5.99;89.99;102993.47;5074818;28;20040;-35
2024/01/10 05:06:07;;;;;;;4.70;2.67;;;;;;;-6.05;89.56;102993.78;5075413;28;20063;-35
2024/01/10 05:08:32;;;;;;;4.23;2.63;;;;;;;-6.11;89.16;102987.91;5074978;28;20032;-34
2024/01/10 05:10:58;;;;;;;4.70;2.40;;;;;;;-6.14;89.96;102982.81;5074993;28;20020;-34
2024/01/10 05:13:23;;;;;;;4.20;2.90;;;;;;;-6.16;90.93;102984.63;5074954;28;20032;-34
2024/01/10 05:15:48;;;;;;;4.67;3.30;;;;;;;-6.14;91.69;102990.72;5075604;28;20055;-35
2024/01/10 05:18:15;;;;;;;3.77;2.63;;;;;;;-6.13;91.81;102982.72;5074809;28;20331;-35
2024/01/10 05:20:41;;;;;;;5.55;3.03;;;;;;;-6.19;90.82;102983.00;5075092;28;20025;-35
2024/01/10 05:23:06;;;;;;;5.23;3.30;;;;;;;-6.19;90.37;102983.00;5074575;28;20512;-35
2024/01/10 05:25:32;;;;;;;5.17;3.33;;;;;;;-6.22;90.82;102969.97;5074676;28;20469;-35
2024/01/10 05:27:57;;;;;;;4.70;2.80;;;;;;;-6.24;91.86;102967.41;5074921;28;20027;-35
2024/01/10 05:30:22;;;;;;;4.53;2.63;;;;;;;-6.33;91.88;102959.09;5074884;28;20088;-35
2024/01/10 05:32:48;;;;;;;4.53;2.97;;;;;;;-6.36;91.45;102969.75;5075359;28;20028;-35
2024/01/10 05:35:13;;;;;;;4.83;2.83;;;;;;;-6.25;92.84;102981.50;5074149;28;20136;-35
2024/01/10 05:37:38;;;;;;;5.50;3.10;;;;;;;-6.26;92.55;102971.03;5075311;28;20503;-35
2024/01/10 05:40:05;;;;;;;4.80;3.00;;;;;;;-6.29;92.08;102979.94;5075011;28;20067;-35
2024/01/10 05:42:32;;;;;;;5.05;3.08;;;;;;;-6.29;92.59;102968.56;5074908;28;20036;-35
2024/01/10 05:44:58;;;;;;;5.13;2.75;;;;;;;-6.32;93.17;102971.31;5074777;28;20028;-35
2024/01/10 05:47:23;;;;;;;4.97;3.17;;;;;;;-6.26;92.34;102981.56;5074042;28;20081;-35
2024/01/10 05:49:49;;;;;;;7.57;3.78;;;;;;;-6.30;92.38;102980.00;5073883;28;20035;-35
2024/01/10 05:52:14;;;;;;;4.43;2.87;;;;;;;-6.32;94.00;102979.22;5075066;28;20040;-36
2024/01/10 05:54:39;;;;;;;4.37;2.97;;;;;;;-6.30;94.02;102980.00;5074045;28;20020;-35
2024/01/10 05:57:05;;;;;;;4.47;2.60;;;;;;;-6.30;93.37;102980.00;5075216;28;20289;-35
2024/01/10 05:59:30;;;;;;;4.70;2.67;;;;;;;-6.25;94.20;102985.91;5073971;28;20082;-34
2024/01/10 06:01:57;;;;;;;4.68;3.08;;;;;;;-6.32;94.53;102972.16;5074542;28;20024;-35
2024/01/10 06:04:22;;;;;;;4.45;3.10;;;;;;;-6.39;93.94;102961.97;5073687;28;20029;-35
2024/01/10 06:06:47;;;;;;;6.20;3.23;;;;;;;-6.29;93.37;102984.38;5073914;28;20383;-35
2024/01/10 06:09:13;;;;;;;3.87;2.53;;;;;;;-6.27;94.64;102987.75;5073542;28;20028;-35
2024/01/10 06:11:42;;;;;;;3.77;2.60;;;;;;;-6.37;93.97;102983.84;5073551;28;20029;-35
2024/01/10 06:14:07;;;;;;;5.00;3.08;;;;;;;-6.47;93.72;102975.50;5073696;28;20429;-35
2024/01/10 06:16:32;;;;;;;5.43;2.90;;;;;;;-6.58;94.66;102952.28;5073721;28;20068;-35
2024/01/10 06:18:58;;;;;;;4.43;2.90;;;;;;;-6.46;95.26;102968.44;5073950;28;20085;-35
2024/01/10 06:21:23;;;;;;;5.30;3.07;;;;;;;-6.55;95.49;102981.09;5073928;28;20600;-35
2024/01/10 06:23:48;;;;;;;4.87;2.90;;;;;;;-6.64;96.68;102960.44;5073637;28;20024;-35
2024/01/10 06:26:14;;;;;;;5.43;3.23;;;;;;;-6.65;96.65;102965.78;5073709;28;20481;-35
2024/01/10 06:28:39;;;;;;;4.40;2.93;;;;;;;-6.77;97.26;102954.03;5073554;28;20032;-35
2024/01/10 06:31:05;;;;;;;5.23;2.90;;;;;;;-6.80;99.04;102962.91;5073525;28;20035;-35
2024/01/10 06:33:30;;;;;;;5.67;3.00;;;;;;;-6.79;98.70;102971.63;5072313;28;20270;-35
2024/01/10 06:35:56;;;;;;;5.47;3.33;;;;;;;-6.83;98.69;102965.69;5073516;28;20056;-35
2024/01/10 06:38:23;;;;;;;5.10;2.95;;;;;;;-6.82;98.94;102953.38;5073375;28;20028;-35
2024/01/10 06:40:48;;;;;;;4.95;3.17;;;;;;;-6.71;99.68;102964.28;5073960;28;20031;-35
2024/01/10 06:43:15;;;;;;;5.27;3.33;;;;;;;-6.71;99.14;102953.75;5073451;28;20453;-35
2024/01/10 06:45:40;;;;;;;;;;;;;;;-6.78;99.24;102958.44;5073729;28;20533;-35
2024/01/10 06:48:06;;;;;;;5.95;3.70;;;;;;;-6.79;99.62;102961.13;5073319;28;20002;-35
2024/01/10 06:50:31;;;;;;;7.95;3.90;;;;;;;-6.89;100.00;102944.03;5073323;28;20095;-35
2024/01/10 06:52:57;;;;;;;9.45;3.90;;;;;;;-6.77;99.85;102975.06;5073579;28;20028;-35
2024/01/10 06:55:24;;;;;;;5.65;3.00;;;;;;;-6.71;100.00;102969.53;5073234;28;20499;-35
2024/01/10 06:57:52;;;;;;;5.55;3.33;;;;;;;-6.66;99.53;102971.97;5073544;28;20111;-35
2024/01/10 07:00:21;;;;;;;4.65;3.22;;;;;;;-6.74;99.17;102972.28;5073157;28;20059;-35
2024/01/10 07:02:46;;;;;;;5.90;3.92;;;;;;;-6.70;100.00;102971.25;5073776;28;20362;-36
2024/01/10 07:05:12;;;;;;;6.65;3.40;;;;;;;-6.72;99.41;102981.00;5073205;28;20036;-35
2024/01/10 07:07:37;;;;;;;7.20;3.93;;;;;;;-6.68;99.33;102979.09;5073689;28;20028;-35
2024/01/10 07:10:06;;;;;;;6.18;3.95;;;;;;;-6.69;99.82;102972.94;5073112;28;20275;-35
2024/01/10 07:12:33;;;;;;;5.68;3.88;;;;;;;-6.67;100.00;102981.66;5073697;28;20480;-35
2024/01/10 07:14:58;;;;;;;6.18;3.75;;;;;;;-6.73;99.10;102976.66;5071564;28;20131;-35
2024/01/10 07:17:23;;;;;;;5.03;3.13;;;;;;;-6.73;99.55;102966.13;5074832;28;20025;-35
2024/01/10 07:19:49;;;;;;;6.23;3.67;;;;;;;-6.67;99.17;102972.91;5076773;28;20277;-35
2024/01/10 07:22:15;;;;;;;6.68;3.75;;;;;;;-6.76;98.93;102968.88;5076809;28;20488;-35
2024/01/10 07:24:40;;;;;;;;;;;;;;;-6.61;98.50;102985.78;5077059;28;20025;-42
2024/01/10 07:27:07;;;;;;;6.70;3.60;;;;;;;-6.65;99.04;102992.94;5077176;28;19962;-35
2024/01/10 07:29:34;;;;;;;5.57;3.60;;;;;;;-6.63;98.81;102993.75;5076683;28;20024;-35
2024/01/10 07:31:59;;;;;;;5.93;3.60;;;;;;;-6.70;98.68;102984.41;5076542;28;20524;-35
2024/01/10 07:34:24;;;;;;;7.53;4.23;;;;;;;-6.59;98.71;102989.19;5076744;28;20040;-35
2024/01/10 07:36:50;;;;;;;5.63;3.53;;;;;;;-6.59;99.67;102992.66;5076587;28;20535;-35
2024/01/10 07:39:18;;;;;;;6.77;4.17;;;;;;;-6.67;98.80;102970.28;5076129;28;20060;-35
2024/01/10 07:41:43;;;;;;;8.02;4.28;;;;;;;-6.62;98.79;102979.66;5075393;28;20108;-34
2024/01/10 07:44:09;;;;;;;6.13;3.72;;;;;;;-6.64;98.64;102970.97;5076216;28;20387;-35
2024/01/10 07:46:37;;;;;;;5.78;3.38;;;;;;;-6.63;99.16;102970.06;5076817;28;20036;-35
2024/01/10 07:49:03;;;;;;;6.28;4.05;;;;;;;-6.67;99.05;102965.84;5076511;28;20059;-35
2024/01/10 07:51:29;;;;;;;7.45;4.70;;;;;;;-6.82;99.14;102946.34;5076679;28;20074;-35
2024/01/10 07:53:54;;;;;;;8.20;4.35;;;;;;;-6.77;99.45;102960.13;5076943;28;20033;-35
2024/01/10 07:56:20;;;;;;;6.63;3.80;;;;;;;-6.77;99.51;102928.56;5076697;28;20503;-35
2024/01/10 07:58:45;;;;;;;6.27;4.00;;;;;;;-6.69;98.77;102954.53;5076083;28;20473;-35
2024/01/10 08:01:10;;;;;;;6.63;4.10;;;;;;;-6.76;98.94;102942.56;5076834;28;20270;-35
2024/01/10 08:03:36;;;;;;;6.38;3.70;;;;;;;-6.80;98.67;102941.84;5075938;28;20107;-35
2024/01/10 08:06:02;;;;;;;5.90;3.70;;;;;;;-6.62;99.28;102963.03;5075981;28;20036;-35
2024/01/10 08:08:28;;;;;;;6.45;3.85;;;;;;;-6.57;99.30;102968.94;5076686;28;20414;-35
2024/01/10 08:10:53;;;;;;;6.57;3.72;;;;;;;-6.54;98.66;102980.19;5076159;28;20028;-35
2024/01/10 08:13:19;;;;;;;5.93;3.65;;;;;;;-6.49;98.56;102975.56;5076083;28;20025;-35
2024/01/10 08:15:44;;;;;;;6.83;4.03;;;;;;;-6.45;98.30;102970.16;5076260;28;20460;-34
2024/01/10 08:18:10;;;;;;;7.03;3.95;;;;;;;-6.40;98.43;102979.56;5075983;28;20271;-35
2024/01/10 08:20:35;;;;;;;7.60;4.60;;;;;;;-6.43;97.84;102977.06;5075640;28;20029;-35
2024/01/10 08:23:00;;;;;;;6.57;4.00;;;;;;;-6.35;98.48;102976.72;5076571;28;20025;-35
2024/01/10 08:25:26;;;;;;;6.30;3.80;;;;;;;-6.32;98.33;102979.22;5075633;28;20032;-34
2024/01/10 08:27:55;;;;;;;7.35;4.45;;;;;;;-6.46;97.55;102957.91;5075652;28;20086;-35
2024/01/10 08:30:21;;;;;;;6.55;4.63;;;;;;;-6.28;98.49;102986.91;5075976;28;20111;-35
2024/01/10 08:32:47;;;;;;;6.38;4.53;;;;;;;-6.17;99.29;102982.94;5075712;28;20421;-35
2024/01/10 08:35:12;;;;;;;5.57;3.60;;;;;;;-6.37;98.09;102942.56;5076149;28;20032;-35
2024/01/10 08:37:37;;;;;;;7.23;4.30;;;;;;;-6.10;98.46;102986.97;5075950;28;20377;-35
2024/01/10 08:40:07;;;;;;;8.83;4.40;;;;;;;-6.06;97.87;102985.91;5075627;28;20434;-35
2024/01/10 08:42:33;;;;;;;11.07;5.10;;;;;;;-6.07;96.56;102987.69;5076107;28;20025;-35
2024/01/10 08:44:58;;;;;;;6.25;4.32;;;;;;;-6.07;96.89;102982.44;5075804;28;20032;-35
2024/01/10 08:47:24;;;;;;;7.90;4.60;;;;;;;-6.01;96.80;102978.66;5075474;28;20024;-35
2024/01/10 08:49:49;;;;;;;8.20;4.47;;;;;;;-5.91;96.92;102982.53;5075339;28;20275;-35
2024/01/10 08:52:15;;;;;;;6.90;4.38;;;;;;;-5.87;95.93;102980.63;5075919;28;20162;-35
2024/01/10 08:54:40;;;;;;;6.40;4.20;;;;;;;-5.83;96.81;102969.00;5075245;28;20629;-35
2024/01/10 08:57:06;;;;;;;5.87;4.40;;;;;;;-5.76;95.53;102975.69;5075810;28;20045;-35
2024/01/10 08:59:32;;;;;;;;;;;;;;;-5.66;95.15;102982.25;5076428;28;20052;-35
2024/01/10 09:01:57;;;;;;;6.72;4.50;;;;;;;-5.67;94.39;102956.81;5075108;28;19962;-35
2024/01/10 09:04:22;;;;;;;9.50;4.50;;;;;;;-5.55;93.17;102974.69;5075333;28;20032;-35
2024/01/10 09:06:48;;;;;;;6.77;4.63;;;;;;;-5.46;93.70;102983.94;5075694;28;20169;-35
2024/01/10 09:09:13;;;;;;;8.15;5.00;;;;;;;-5.39;90.87;102985.31;5075035;28;20158;-34
2024/01/10 09:11:39;;;;;;;8.17;5.10;;;;;;;-5.43;88.92;102974.06;5075301;28;20524;-35
2024/01/10 09:14:04;;;;;;;8.93;4.80;;;;;;;-5.31;88.34;102980.53;5075708;28;20103;-35
2024/01/10 09:16:29;;;;;;;9.00;4.95;;;;;;;-5.20;88.40;102986.13;5075336;28;20021;-35
2024/01/10 09:18:57;;;;;;;6.97;4.37;;;;;;;-5.08;89.02;102989.06;5074841;28;20029;-35
2024/01/10 09:21:23;;;;;;;10.80;5.00;;;;;;;-5.10;86.34;102985.66;5075248;28;20711;-35
2024/01/10 09:23:50;;;;;;;7.28;4.13;;;;;;;-5.01;87.01;102990.50;5074641;28;20051;-35
2024/01/10 09:26:17;;;;;;;7.95;5.20;;;;;;;-5.04;85.62;102991.47;5074452;28;20183;-35
2024/01/10 09:28:42;;;;;;;7.40;5.38;;;;;;;-5.03;84.59;102971.22;5074343;28;20060;-35
2024/01/10 09:31:08;;;;;;;7.50;4.63;;;;;;;-4.84;84.97;103000.19;5074937;28;20453;-35
2024/01/10 09:33:33;;;;;;;9.02;5.10;;;;;;;-4.86;84.43;102980.94;5074489;28;20035;-35
2024/01/10 09:35:59;;;;;;;8.47;4.77;;;;;;;-4.79;84.95;102983.16;5074351;28;20029;-35
2024/01/10 09:38:24;;;;;;;8.20;4.97;;;;;;;-4.67;84.18;103006.31;5074112;28;20042;-35
2024/01/10 09:40:53;;;;;;;8.18;4.82;;;;;;;-4.64;82.69;103010.56;5073562;28;20035;-35
2024/01/10 09:43:18;;;;;;;7.22;4.80;;;;;;;-4.60;82.75;103012.13;5074062;28;20056;-35
2024/01/10 09:45:48;;;;;;;7.90;5.35;;;;;;;-4.48;83.93;103010.66;5074912;28;20426;-35
2024/01/10 09:48:14;;;;;;;9.07;5.03;;;;;;;-4.64;81.50;102985.94;5074955;28;20411;-35
2024/01/10 09:50:41;;;;;;;7.72;5.22;;;;;;;-4.42;82.21;103013.81;5074163;28;20464;-35
2024/01/10 09:53:07;;;;;;;7.28;4.85;;;;;;;-4.36;80.61;103002.06;5074359;28;20071;-35
2024/01/10 09:55:35;;;;;;;7.38;4.70;;;;;;;-4.26;81.84;103000.63;5074147;28;20080;-35
2024/01/10 09:58:08;;;;;;;8.25;5.35;;;;;;;-4.24;80.19;103004.06;5074303;28;20029;-35
2024/01/10 10:00:35;;;;;;;11.35;6.00;;;;;;;-4.23;79.41;103007.56;5074204;28;20020;-35
2024/01/10 10:03:04;;;;;;;10.77;6.70;;;;;;;-4.29;78.49;102984.13;5073718;28;20112;-35
2024/01/10 10:05:29;;;;;;;8.30;5.03;;;;;;;-4.20;80.36;102980.94;5074155;28;20075;-35
2024/01/10 10:07:55;;;;;;;8.20;5.40;;;;;;;-4.01;79.46;102992.22;5074196;28;20421;-35
2024/01/10 10:10:20;;;;;;;7.93;4.57;;;;;;;-3.97;79.72;103004.34;5074167;28;20031;-35
2024/01/10 10:12:47;;;;;;;9.93;5.88;;;;;;;-3.96;78.90;102986.69;5074106;28;20103;-35
2024/01/10 10:15:18;;;;;;;8.52;6.03;;;;;;;-4.01;76.89;102986.94;5073688;28;20423;-35
2024/01/10 10:17:48;;;;;;;10.18;5.28;;;;;;;-3.82;79.28;102986.78;5074542;28;20046;-35
2024/01/10 10:20:19;;;;;;;8.63;5.65;;;;;;;-3.80;76.61;102982.28;5073631;28;20116;-35
2024/01/10 10:22:59;;;;;;;9.27;6.03;;;;;;;-3.73;76.18;102990.72;5074465;28;20028;-35
2024/01/10 10:25:27;;;;;;;8.98;5.93;;;;;;;-3.71;75.80;102986.19;5073889;28;20106;-35
2024/01/10 10:27:52;;;;;;;9.35;5.95;;;;;;;-3.68;75.22;102986.03;5074126;28;20126;-35
2024/01/10 10:30:18;;;;;;;9.43;5.50;;;;;;;-3.63;75.08;102991.91;5073550;28;20024;-34
2024/01/10 10:32:43;;;;;;;10.10;6.47;;;;;;;-3.62;74.31;102985.69;5073776;28;20538;-35
2024/01/10 10:35:09;;;;;;;11.03;6.37;;;;;;;-3.60;73.81;102980.31;5073749;28;20024;-35
2024/01/10 10:37:34;;;;;;;8.63;5.40;;;;;;;-3.52;74.38;102986.00;5073494;28;20028;-35
2024/01/10 10:39:59;;;;;;;10.65;6.80;;;;;;;-3.57;73.84;102969.56;5074200;28;20035;-35
2024/01/10 10:42:28;;;;;;;9.30;6.10;;;;;;;-3.41;73.19;102975.69;5073499;28;20033;-35
2024/01/10 10:45:02;;;;;;;10.35;6.28;;;;;;;-3.37;74.66;102979.84;5073373;28;20051;-35
2024/01/10 10:47:35;;;;;;;11.13;6.43;;;;;;;-3.39;73.17;102973.78;5073398;28;20024;-35
2024/01/10 10:50:03;;;;;;;10.02;6.47;;;;;;;-3.26;73.88;102976.59;5074149;28;20373;-35
2024/01/10 10:52:29;;;;;;;11.13;5.82;;;;;;;-3.19;73.57;102970.84;5073701;28;20346;-35
2024/01/10 10:54:58;;;;;;;11.10;6.90;;;;;;;-3.22;72.23;102967.50;5072785;28;20150;-35
2024/01/10 10:57:25;;;;;;;11.50;5.97;;;;;;;-3.10;73.42;102980.03;5073295;28;20032;-35
2024/01/10 10:59:53;;;;;;;10.20;6.70;;;;;;;-3.03;72.48;102983.19;5073138;28;20028;-36
2024/01/10 11:02:24;;;;;;;11.55;6.85;;;;;;;-2.97;72.35;102977.53;5073725;28;20070;-35
2024/01/10 11:04:53;;;;;;;9.63;6.25;;;;;;;-2.94;72.52;102978.19;5073965;28;20031;-35
2024/01/10 11:07:19;;;;;;;9.75;6.25;;;;;;;-3.00;71.19;102960.03;5073224;28;20030;-36
2024/01/10 11:09:47;;;;;;;11.85;6.72;;;;;;;-3.04;70.26;102958.50;5072842;28;20025;-35
2024/01/10 11:13:06;;;;;;;9.68;5.93;;;;;;;-2.82;72.15;102973.13;5073731;28;20028;-35
2024/01/10 11:15:56;;;;;;;8.65;5.80;;;;;;;-2.75;71.98;102967.34;5048024;28;20055;-35
2024/01/10 11:18:46;;;;;;;10.68;6.20;;;;;;;-2.70;70.20;102975.03;5073078;28;20036;-35
2024/01/10 11:21:11;;;;;;;12.02;7.00;;;;;;;-2.69;70.01;102964.34;5073350;28;20346;-36